createdAt,value
2023-02-14T00:01:26.659Z,84.29
2023-02-14T00:03:54.913Z,83.78
2023-02-14T00:06:22.844Z,84.88
2023-02-14T00:08:52.447Z,86.03
2023-02-14T00:11:20.714Z,86.61
2023-02-14T00:14:07.511Z,85.49
2023-02-14T00:16:36.543Z,84.31
2023-02-14T00:19:05.471Z,85.09
2023-02-14T00:21:35.978Z,84.52
2023-02-14T00:24:07.907Z,84.06
2023-02-14T00:26:38.723Z,82.10
2023-02-14T00:29:07.455Z,82.02
2023-02-14T00:31:35.526Z,83.95
2023-02-14T00:34:04.098Z,84.66
2023-02-14T00:36:33.632Z,82.53
2023-02-14T00:39:06.862Z,84.15
2023-02-14T00:41:35.172Z,85.33
2023-02-14T00:44:02.769Z,86.15
2023-02-14T00:46:30.780Z,86.52
2023-02-14T00:48:59.069Z,86.20
2023-02-14T00:51:27.639Z,85.87
2023-02-14T00:53:55.454Z,84.17
2023-02-14T00:56:23.719Z,84.62
2023-02-14T00:58:51.932Z,85.61
2023-02-14T01:01:20.052Z,85.39
2023-02-14T01:03:49.874Z,84.42
2023-02-14T01:06:17.881Z,84.42
2023-02-14T01:08:46.490Z,87.14
2023-02-14T01:11:24.363Z,88.95
2023-02-14T01:13:52.616Z,89.06
2023-02-14T01:16:20.808Z,90.67
2023-02-14T01:18:48.136Z,92.34
2023-02-14T01:21:28.066Z,92.71
2023-02-14T01:23:59.926Z,93.36
2023-02-14T01:26:27.586Z,90.81
2023-02-14T01:29:01.184Z,89.46
2023-02-14T01:31:30.414Z,90.86
2023-02-14T01:33:58.487Z,90.28
2023-02-14T01:36:52.304Z,94.13
2023-02-14T01:39:20.638Z,95.64
2023-02-14T01:41:49.124Z,96.15
2023-02-14T01:44:16.202Z,96.08
2023-02-14T01:46:45.141Z,93.88
2023-02-14T01:49:11.838Z,93.97
2023-02-14T01:51:40.570Z,93.93
2023-02-14T01:54:08.476Z,96.02
2023-02-14T01:56:39.215Z,96.56
2023-02-14T01:59:07.735Z,96.68
2023-02-14T02:01:35.581Z,97.83
2023-02-14T02:04:15.238Z,98.02
2023-02-14T02:06:48.421Z,97.54
2023-02-14T02:09:34.207Z,97.67
2023-02-14T02:12:02.424Z,96.98
2023-02-14T02:14:31.800Z,96.78
2023-02-14T02:17:21.071Z,96.96
2023-02-14T02:20:13.002Z,95.53
2023-02-14T02:23:13.910Z,93.74
2023-02-14T02:25:53.071Z,93.60
2023-02-14T02:28:45.474Z,93.58
2023-02-14T02:31:28.135Z,94.92
2023-02-14T02:34:04.624Z,97.19
2023-02-14T02:37:18.585Z,97.40
2023-02-14T02:40:10.292Z,98.79
2023-02-14T02:42:53.706Z,99.58
2023-02-14T02:45:34.520Z,99.22
2023-02-14T02:48:11.355Z,100.00
2023-02-14T02:51:04.735Z,100.00
2023-02-14T02:54:25.761Z,99.71
2023-02-14T02:56:58.633Z,99.25
2023-02-14T02:59:28.884Z,99.31
2023-02-14T03:02:02.505Z,98.90
2023-02-14T03:04:47.533Z,98.71
2023-02-14T03:07:34.022Z,98.36
2023-02-14T03:10:14.406Z,96.91
2023-02-14T03:12:59.390Z,97.45
2023-02-14T03:15:37.579Z,96.76
2023-02-14T03:19:00.677Z,97.57
2023-02-14T03:21:43.047Z,98.25
2023-02-14T03:24:30.742Z,97.37
2023-02-14T03:27:08.612Z,97.67
2023-02-14T03:29:47.793Z,97.88
2023-02-14T03:32:20.207Z,98.29
2023-02-14T03:35:18.180Z,97.91
2023-02-14T03:38:33.068Z,97.49
2023-02-14T03:41:02.715Z,97.61
2023-02-14T03:43:35.300Z,98.02
2023-02-14T03:46:14.791Z,98.36
2023-02-14T03:48:41.879Z,98.80
2023-02-14T03:51:11.484Z,98.83
2023-02-14T03:53:40.247Z,98.57
2023-02-14T03:56:23.466Z,97.75
2023-02-14T03:58:52.169Z,97.08
2023-02-14T04:01:24.872Z,95.70
2023-02-14T04:03:53.233Z,94.53
2023-02-14T04:06:22.931Z,95.18
2023-02-14T04:08:51.362Z,96.15
2023-02-14T04:11:19.549Z,95.77
2023-02-14T04:13:47.617Z,95.59
2023-02-14T04:16:15.704Z,94.58
2023-02-14T04:19:02.225Z,95.00
2023-02-14T04:21:30.494Z,94.99
2023-02-14T04:23:58.596Z,95.75
2023-02-14T04:26:27.396Z,96.58
2023-02-14T04:28:55.136Z,96.91
2023-02-14T04:31:22.939Z,96.59
2023-02-14T04:33:51.437Z,96.72
2023-02-14T04:36:19.064Z,96.29
2023-02-14T04:38:47.341Z,96.39
2023-02-14T04:41:15.344Z,96.19
2023-02-14T04:43:43.135Z,97.47
2023-02-14T04:46:11.412Z,97.93
2023-02-14T04:48:39.612Z,98.26
2023-02-14T04:51:07.217Z,98.22
2023-02-14T04:53:40.274Z,98.72
2023-02-14T04:56:08.464Z,98.63
2023-02-14T04:58:36.192Z,99.12
2023-02-14T05:01:04.618Z,99.05
2023-02-14T05:03:32.969Z,99.50
2023-02-14T05:06:01.266Z,99.52
2023-02-14T05:08:28.811Z,99.53
2023-02-14T05:10:57.562Z,100.00
2023-02-14T05:13:25.844Z,100.00
2023-02-14T05:15:53.985Z,100.00
2023-02-14T05:18:21.969Z,100.00
2023-02-14T05:20:52.403Z,100.00
2023-02-14T05:23:20.546Z,100.00
2023-02-14T05:25:51.145Z,100.00
2023-02-14T05:28:20.599Z,100.00
2023-02-14T05:30:48.308Z,100.00
2023-02-14T05:33:16.623Z,99.26
2023-02-14T05:35:45.284Z,98.72
2023-02-14T05:38:13.938Z,99.32
2023-02-14T05:40:42.215Z,100.00
2023-02-14T05:43:09.949Z,100.00
2023-02-14T05:45:38.432Z,100.00
2023-02-14T05:48:06.599Z,100.00
2023-02-14T05:50:34.122Z,100.00
2023-02-14T05:53:02.163Z,100.00
2023-02-14T05:55:30.389Z,100.00
2023-02-14T05:57:58.882Z,100.00
2023-02-14T06:00:27.494Z,99.83
2023-02-14T06:02:55.627Z,98.74
2023-02-14T06:05:23.666Z,98.39
2023-02-14T06:07:50.960Z,97.73
2023-02-14T06:10:20.309Z,95.65
2023-02-14T06:12:49.097Z,95.44
2023-02-14T06:15:17.765Z,95.53
2023-02-14T06:17:46.339Z,96.08
2023-02-14T06:20:14.600Z,97.12
2023-02-14T06:22:43.215Z,98.03
2023-02-14T06:25:11.652Z,97.90
2023-02-14T06:27:39.688Z,98.63
2023-02-14T06:30:11.675Z,98.84
2023-02-14T06:32:40.071Z,99.90
2023-02-14T06:35:07.934Z,100.00
2023-02-14T06:37:35.688Z,100.00
2023-02-14T06:40:04.468Z,100.00
2023-02-14T06:42:32.162Z,100.00
2023-02-14T06:45:01.259Z,100.00
2023-02-14T06:47:29.940Z,100.00
2023-02-14T06:50:00.081Z,100.00
2023-02-14T06:52:27.925Z,100.00
2023-02-14T06:54:56.471Z,100.00
2023-02-14T06:57:24.506Z,100.00
2023-02-14T06:59:52.539Z,100.00
2023-02-14T07:02:24.689Z,99.53
2023-02-14T07:04:53.308Z,98.73
2023-02-14T07:07:21.349Z,97.56
2023-02-14T07:09:51.067Z,97.68
2023-02-14T07:12:19.370Z,97.39
2023-02-14T07:14:47.524Z,97.07
2023-02-14T07:17:16.032Z,96.02
2023-02-14T07:19:44.796Z,97.25
2023-02-14T07:22:13.150Z,98.58
2023-02-14T07:24:40.908Z,98.14
2023-02-14T07:27:08.977Z,97.99
2023-02-14T07:29:37.859Z,98.81
2023-02-14T07:32:06.952Z,99.20
2023-02-14T07:34:35.109Z,98.62
2023-02-14T07:37:02.383Z,98.71
2023-02-14T07:39:31.309Z,99.44
2023-02-14T07:41:58.904Z,100.00
2023-02-14T07:44:27.024Z,100.00
2023-02-14T07:46:54.912Z,100.00
2023-02-14T07:49:24.296Z,100.00
2023-02-14T07:51:52.360Z,100.00
2023-02-14T07:54:21.237Z,100.00
2023-02-14T07:56:49.660Z,100.00
2023-02-14T07:59:17.489Z,100.00
2023-02-14T08:01:44.783Z,100.00
2023-02-14T08:04:14.029Z,100.00
2023-02-14T08:06:42.432Z,100.00
2023-02-14T08:09:24.789Z,100.00
2023-02-14T08:12:14.694Z,100.00
2023-02-14T08:14:42.239Z,100.00
2023-02-14T08:17:13.951Z,100.00
2023-02-14T08:19:42.244Z,100.00
2023-02-14T08:22:10.211Z,100.00
2023-02-14T08:24:38.974Z,100.00
2023-02-14T08:27:07.441Z,99.54
2023-02-14T08:29:35.676Z,98.50
2023-02-14T08:32:03.985Z,99.94
2023-02-14T08:34:32.205Z,99.71
2023-02-14T08:37:01.008Z,98.95
2023-02-14T08:39:28.671Z,99.29
2023-02-14T08:41:57.063Z,99.23
2023-02-14T08:44:25.131Z,98.25
2023-02-14T08:46:53.750Z,98.30
2023-02-14T08:49:21.991Z,97.86
2023-02-14T08:51:50.568Z,97.62
2023-02-14T08:54:18.710Z,97.07
2023-02-14T08:56:46.749Z,96.46
2023-02-14T08:59:14.953Z,96.25
2023-02-14T09:01:43.296Z,96.13
2023-02-14T09:04:11.425Z,95.86
2023-02-14T09:06:40.086Z,96.60
2023-02-14T09:09:07.664Z,95.49
2023-02-14T09:11:35.581Z,95.12
2023-02-14T09:14:04.957Z,94.45
2023-02-14T09:16:32.524Z,93.91
2023-02-14T09:19:00.359Z,92.88
2023-02-14T09:21:28.068Z,92.02
2023-02-14T09:23:55.933Z,90.83
2023-02-14T09:26:23.919Z,90.00
2023-02-14T09:28:52.199Z,88.85
2023-02-14T09:31:22.281Z,87.99
2023-02-14T09:33:50.459Z,88.19
2023-02-14T09:36:35.808Z,87.59
2023-02-14T09:39:07.183Z,87.49
2023-02-14T09:42:07.313Z,85.08
2023-02-14T09:44:41.077Z,84.52
2023-02-14T09:47:34.932Z,82.99
2023-02-14T09:50:06.131Z,81.68
2023-02-14T09:52:33.363Z,79.81
2023-02-14T09:55:01.516Z,78.49
2023-02-14T09:57:53.361Z,78.94
2023-02-14T10:00:43.687Z,76.96
2023-02-14T10:03:18.213Z,75.33
2023-02-14T10:06:12.662Z,75.01
2023-02-14T10:08:49.563Z,72.38
2023-02-14T10:11:20.519Z,72.03
2023-02-14T10:14:10.554Z,71.19
2023-02-14T10:16:53.756Z,71.23
2023-02-14T10:19:39.213Z,70.53
2023-02-14T10:22:17.553Z,69.48
2023-02-14T10:25:24.352Z,69.01
2023-02-14T10:27:52.851Z,67.89
2023-02-14T10:30:22.253Z,67.91
2023-02-14T10:33:06.441Z,68.79
2023-02-14T10:35:45.481Z,66.72
2023-02-14T10:38:50.212Z,67.47
2023-02-14T10:41:53.347Z,64.47
2023-02-14T10:44:42.092Z,65.18
2023-02-14T10:47:47.028Z,63.21
2023-02-14T10:50:35.664Z,62.66
2023-02-14T10:53:17.159Z,61.75
2023-02-14T10:56:06.520Z,61.51
2023-02-14T10:58:37.773Z,61.48
2023-02-14T11:01:16.305Z,61.57
2023-02-14T11:03:56.165Z,58.37
2023-02-14T11:06:24.297Z,56.55
2023-02-14T11:08:51.982Z,57.74
2023-02-14T11:11:31.295Z,55.62
2023-02-14T11:13:59.044Z,55.63
2023-02-14T11:16:31.427Z,50.95
2023-02-14T11:19:25.990Z,51.35
2023-02-14T11:21:54.716Z,50.74
2023-02-14T11:24:31.891Z,49.66
2023-02-14T11:27:07.450Z,48.41
2023-02-14T11:29:45.053Z,49.25
2023-02-14T11:32:16.565Z,47.85
2023-02-14T11:34:59.808Z,45.79
2023-02-14T11:37:34.085Z,45.29
2023-02-14T11:40:01.486Z,45.15
2023-02-14T11:42:34.181Z,44.81
2023-02-14T11:45:02.112Z,43.97
2023-02-14T11:47:30.746Z,44.45
2023-02-14T11:50:02.270Z,43.52
2023-02-14T11:52:29.964Z,46.49
2023-02-14T11:54:57.660Z,46.27
2023-02-14T11:57:33.873Z,45.78
2023-02-14T12:00:01.835Z,45.66
2023-02-14T12:02:33.659Z,45.70
2023-02-14T12:05:06.025Z,45.46
2023-02-14T12:07:36.580Z,45.15
2023-02-14T12:10:18.900Z,44.39
2023-02-14T12:12:51.782Z,44.84
2023-02-14T12:15:23.520Z,43.92
2023-02-14T12:17:53.278Z,42.74
2023-02-14T12:20:27.133Z,41.33
2023-02-14T12:23:13.761Z,41.61
2023-02-14T12:25:44.545Z,40.38
2023-02-14T12:28:14.199Z,39.34
2023-02-14T12:30:41.915Z,38.52
2023-02-14T12:33:35.378Z,38.27
2023-02-14T12:36:44.194Z,37.59
2023-02-14T12:39:29.369Z,37.17
2023-02-14T12:42:02.895Z,34.78
2023-02-14T12:44:42.587Z,37.08
2023-02-14T12:47:14.211Z,36.08
2023-02-14T12:49:49.739Z,35.48
2023-02-14T12:52:33.353Z,35.38
2023-02-14T12:55:24.141Z,35.34
2023-02-14T12:58:12.729Z,34.70
2023-02-14T13:00:44.426Z,34.92
2023-02-14T13:03:26.677Z,33.55
2023-02-14T13:06:16.023Z,33.52
2023-02-14T13:08:49.289Z,33.24
2023-02-14T13:11:22.408Z,33.97
2023-02-14T13:14:04.489Z,32.48
2023-02-14T13:16:39.691Z,32.93
2023-02-14T13:19:22.035Z,32.31
2023-02-14T13:21:49.919Z,32.61
2023-02-14T13:24:28.704Z,32.33
2023-02-14T13:26:57.469Z,31.59
2023-02-14T13:29:25.361Z,31.42
2023-02-14T13:31:58.839Z,32.09
2023-02-14T13:34:33.277Z,31.91
2023-02-14T13:37:00.811Z,31.04
2023-02-14T13:39:38.476Z,30.89
2023-02-14T13:42:07.166Z,30.66
2023-02-14T13:44:48.978Z,30.59
2023-02-14T13:47:26.081Z,31.01
2023-02-14T13:50:00.796Z,30.30
2023-02-14T13:52:44.021Z,30.18
2023-02-14T13:55:46.228Z,29.76
2023-02-14T13:58:21.834Z,30.62
2023-02-14T14:00:49.649Z,29.66
2023-02-14T14:03:28.934Z,29.80
2023-02-14T14:06:09.884Z,30.32
2023-02-14T14:08:42.650Z,30.73
2023-02-14T14:11:22.904Z,30.37
2023-02-14T14:13:59.746Z,30.48
2023-02-14T14:16:33.641Z,30.77
2023-02-14T14:19:10.192Z,31.22
2023-02-14T14:21:37.742Z,31.75
2023-02-14T14:24:26.936Z,32.16
2023-02-14T14:27:08.288Z,32.68
2023-02-14T14:29:45.296Z,32.71
2023-02-14T14:32:18.354Z,33.50
2023-02-14T14:34:52.554Z,33.87
2023-02-14T14:37:21.932Z,34.12
2023-02-14T14:39:53.763Z,34.14
2023-02-14T14:42:21.469Z,33.40
2023-02-14T14:45:00.032Z,33.02
2023-02-14T14:47:30.778Z,33.04
2023-02-14T14:50:04.717Z,33.86
2023-02-14T14:52:39.450Z,33.50
2023-02-14T14:55:08.493Z,33.61
2023-02-14T14:57:39.718Z,33.58
2023-02-14T15:00:18.648Z,32.80
2023-02-14T15:03:00.611Z,32.36
2023-02-14T15:05:55.907Z,31.77
2023-02-14T15:08:25.588Z,31.02
2023-02-14T15:10:55.691Z,30.98
2023-02-14T15:13:50.760Z,30.57
2023-02-14T15:16:21.558Z,30.48
2023-02-14T15:18:49.548Z,31.18
2023-02-14T15:21:16.475Z,31.83
2023-02-14T15:23:44.206Z,32.38
2023-02-14T15:26:17.103Z,32.43
2023-02-14T15:28:44.655Z,33.11
2023-02-14T15:31:11.859Z,33.88
2023-02-14T15:33:39.631Z,34.53
2023-02-14T15:36:08.677Z,34.99
2023-02-14T15:38:36.684Z,35.88
2023-02-14T15:41:04.676Z,36.61
2023-02-14T15:43:33.015Z,37.17
2023-02-14T15:46:21.310Z,36.84
2023-02-14T15:48:49.335Z,36.38
2023-02-14T15:51:26.307Z,36.52
2023-02-14T15:53:58.865Z,36.30
2023-02-14T15:56:44.828Z,35.49
2023-02-14T15:59:20.991Z,35.10
2023-02-14T16:02:05.960Z,34.47
2023-02-14T16:04:36.148Z,34.17
2023-02-14T16:07:06.881Z,34.18
2023-02-14T16:09:35.464Z,34.39
2023-02-14T16:12:31.754Z,34.05
2023-02-14T16:15:17.514Z,34.40
2023-02-14T16:17:45.931Z,35.44
2023-02-14T16:20:43.720Z,36.40
2023-02-14T16:23:19.838Z,38.52
2023-02-14T16:25:47.024Z,40.49
2023-02-14T16:28:14.953Z,41.84
2023-02-14T16:30:42.688Z,43.51
2023-02-14T16:33:22.202Z,44.38
2023-02-14T16:35:49.335Z,45.31
2023-02-14T16:38:17.722Z,46.35
2023-02-14T16:40:46.819Z,47.33
2023-02-14T16:43:18.612Z,47.61
2023-02-14T16:45:45.699Z,47.99
2023-02-14T16:48:15.794Z,48.23
2023-02-14T16:50:42.549Z,48.92
2023-02-14T16:53:22.677Z,49.11
2023-02-14T16:55:50.801Z,50.34
2023-02-14T16:58:19.562Z,51.05
2023-02-14T17:00:50.503Z,51.50
2023-02-14T17:03:18.184Z,51.66
2023-02-14T17:05:45.647Z,51.99
2023-02-14T17:08:13.216Z,52.90
2023-02-14T17:10:40.330Z,53.26
2023-02-14T17:13:07.465Z,53.73
2023-02-14T17:15:35.480Z,54.02
2023-02-14T17:18:09.044Z,53.81
2023-02-14T17:20:37.115Z,53.87
2023-02-14T17:23:04.974Z,53.98
2023-02-14T17:25:32.119Z,54.41
2023-02-14T17:28:03.142Z,54.47
2023-02-14T17:30:31.031Z,55.01
2023-02-14T17:32:58.649Z,55.19
2023-02-14T17:35:26.731Z,55.46
2023-02-14T17:37:54.511Z,55.29
2023-02-14T17:40:22.931Z,55.42
2023-02-14T17:42:51.209Z,55.61
2023-02-14T17:45:18.992Z,56.06
2023-02-14T17:47:46.553Z,55.79
2023-02-14T17:50:14.768Z,56.72
2023-02-14T17:52:42.849Z,56.84
2023-02-14T17:55:16.466Z,57.51
2023-02-14T17:57:43.948Z,58.02
2023-02-14T18:00:16.443Z,58.74
2023-02-14T18:02:45.931Z,58.88
2023-02-14T18:05:13.390Z,58.45
2023-02-14T18:07:41.041Z,58.58
2023-02-14T18:10:09.911Z,58.73
2023-02-14T18:12:38.002Z,59.18
2023-02-14T18:15:06.833Z,59.19
2023-02-14T18:17:34.495Z,59.97
2023-02-14T18:20:03.236Z,60.15
2023-02-14T18:22:30.569Z,59.97
2023-02-14T18:24:58.875Z,60.49
2023-02-14T18:27:26.649Z,60.58
2023-02-14T18:29:54.394Z,61.06
2023-02-14T18:32:22.368Z,61.25
2023-02-14T18:34:51.156Z,62.29
2023-02-14T18:37:19.242Z,63.84
2023-02-14T18:39:47.456Z,63.89
2023-02-14T18:42:15.459Z,63.56
2023-02-14T18:44:43.058Z,64.15
2023-02-14T18:47:11.083Z,63.60
2023-02-14T18:49:39.417Z,63.87
2023-02-14T18:52:07.425Z,64.29
2023-02-14T18:54:35.351Z,63.86
2023-02-14T18:57:07.064Z,64.44
2023-02-14T18:59:35.240Z,64.87
2023-02-14T19:02:03.328Z,65.08
2023-02-14T19:04:30.976Z,65.16
2023-02-14T19:06:58.654Z,64.76
2023-02-14T19:09:27.534Z,65.08
2023-02-14T19:12:00.035Z,65.66
2023-02-14T19:14:27.944Z,65.50
2023-02-14T19:16:55.552Z,65.54
2023-02-14T19:19:24.180Z,65.29
2023-02-14T19:21:52.110Z,65.56
2023-02-14T19:24:19.974Z,66.13
2023-02-14T19:26:48.326Z,66.22
2023-02-14T19:29:17.239Z,65.71
2023-02-14T19:31:45.867Z,65.87
2023-02-14T19:34:20.216Z,66.35
2023-02-14T19:36:48.027Z,66.14
2023-02-14T19:39:15.710Z,65.62
2023-02-14T19:41:44.604Z,68.39
2023-02-14T19:44:13.918Z,68.82
2023-02-14T19:46:42.516Z,69.39
2023-02-14T19:49:12.049Z,70.32
2023-02-14T19:51:40.032Z,71.04
2023-02-14T19:54:09.723Z,71.07
2023-02-14T19:56:37.948Z,71.79
2023-02-14T19:59:14.428Z,72.52
2023-02-14T20:01:48.520Z,72.47
2023-02-14T20:04:17.796Z,72.93
2023-02-14T20:06:47.092Z,72.54
2023-02-14T20:09:15.628Z,72.40
2023-02-14T20:11:51.570Z,72.34
2023-02-14T20:14:27.219Z,72.27
2023-02-14T20:16:55.793Z,72.38
2023-02-14T20:19:29.520Z,72.21
2023-02-14T20:21:58.184Z,72.23
2023-02-14T20:24:27.885Z,72.08
2023-02-14T20:26:55.525Z,72.14
2023-02-14T20:29:23.966Z,72.70
2023-02-14T20:31:53.489Z,72.64
2023-02-14T20:34:21.572Z,71.35
2023-02-14T20:36:56.179Z,72.10
2023-02-14T20:39:27.018Z,72.73
2023-02-14T20:41:54.668Z,72.57
2023-02-14T20:44:22.615Z,72.70
2023-02-14T20:46:51.694Z,73.57
2023-02-14T20:49:20.894Z,73.03
2023-02-14T20:51:51.677Z,73.56
2023-02-14T20:54:19.557Z,73.51
2023-02-14T20:56:47.577Z,73.82
2023-02-14T20:59:16.206Z,72.16
2023-02-14T21:01:44.480Z,73.48
2023-02-14T21:04:14.094Z,74.81
2023-02-14T21:06:42.162Z,74.52
2023-02-14T21:09:09.745Z,74.41
2023-02-14T21:11:39.026Z,75.23
2023-02-14T21:14:08.080Z,75.26
2023-02-14T21:16:36.493Z,73.73
2023-02-14T21:19:05.994Z,74.47
2023-02-14T21:21:36.463Z,74.66
2023-02-14T21:24:24.434Z,72.86
2023-02-14T21:26:52.905Z,74.26
2023-02-14T21:29:21.082Z,75.34
2023-02-14T21:31:50.776Z,75.61
2023-02-14T21:34:19.003Z,74.93
2023-02-14T21:36:48.097Z,75.46
2023-02-14T21:39:16.829Z,74.88
2023-02-14T21:41:44.723Z,74.87
2023-02-14T21:44:32.731Z,74.73
2023-02-14T21:47:00.935Z,75.61
2023-02-14T21:49:47.352Z,74.58
2023-02-14T21:52:15.200Z,74.72
2023-02-14T21:54:43.606Z,75.06
2023-02-14T21:57:11.131Z,75.81
2023-02-14T21:59:40.510Z,75.05
2023-02-14T22:02:09.018Z,75.28
2023-02-14T22:04:36.659Z,75.97
2023-02-14T22:07:04.712Z,75.01
2023-02-14T22:09:33.153Z,75.46
2023-02-14T22:12:01.316Z,73.80
2023-02-14T22:14:29.347Z,72.36
2023-02-14T22:16:57.812Z,72.55
2023-02-14T22:19:26.557Z,73.36
2023-02-14T22:21:54.351Z,72.66
2023-02-14T22:24:22.569Z,74.05
2023-02-14T22:26:50.865Z,71.96
2023-02-14T22:29:19.678Z,75.06
2023-02-14T22:31:48.220Z,74.63
2023-02-14T22:34:19.593Z,73.66
2023-02-14T22:36:47.263Z,70.01
2023-02-14T22:39:16.064Z,70.73
2023-02-14T22:41:44.200Z,73.79
2023-02-14T22:44:17.211Z,77.42
2023-02-14T22:46:48.563Z,78.51
2023-02-14T22:49:17.524Z,78.26
2023-02-14T22:51:44.655Z,79.00
2023-02-14T22:54:13.782Z,79.88
2023-02-14T22:56:48.113Z,82.86
2023-02-14T22:59:18.505Z,83.76
2023-02-14T23:01:46.436Z,84.41
2023-02-14T23:04:14.276Z,84.67
2023-02-14T23:06:42.013Z,85.11
2023-02-14T23:09:10.203Z,84.93
2023-02-14T23:11:37.920Z,83.97
2023-02-14T23:14:24.252Z,84.87
2023-02-14T23:17:10.250Z,84.18
2023-02-14T23:19:58.636Z,82.94
2023-02-14T23:22:38.002Z,80.03
2023-02-14T23:25:10.710Z,78.33
2023-02-14T23:27:47.659Z,79.02
2023-02-14T23:30:18.437Z,79.94
2023-02-14T23:32:46.833Z,79.24
2023-02-14T23:35:16.170Z,80.70
2023-02-14T23:37:44.736Z,79.33
2023-02-14T23:40:13.720Z,78.50
2023-02-14T23:42:42.120Z,77.51
2023-02-14T23:45:28.436Z,79.32
2023-02-14T23:47:56.528Z,81.58
2023-02-14T23:50:25.187Z,81.02
2023-02-14T23:52:53.234Z,80.70
2023-02-14T23:55:21.260Z,79.80
2023-02-14T23:57:49.523Z,78.75
